Time;durP1;ratioP1;P1;durP2;ratioP2;P2;SDS_P1;SDS_P2;PMS_P1;PMS_P2;Temp;Humidity;BMP_temperature;BMP_pressure;BME280_temperature;BME280_humidity;BME280_pressure;Samples;Min_cycle;Max_cycle;Signal;HPM_P1;HPM_P2
2022/10/28 00:00:55;;;;;;;6.47;4.57;;;15.10;99.90;;;;;;4999417;28;20477;-50
2022/10/28 00:03:23;;;;;;;7.80;4.10;;;15.20;99.90;;;;;;4999481;28;20491;-52
2022/10/28 00:05:50;;;;;;;5.90;5.00;;;16.10;99.90;;;;;;4999439;28;20498;-48
2022/10/28 00:08:17;;;;;;;8.97;5.17;;;14.70;99.90;;;;;;4998729;28;20427;-50
2022/10/28 00:10:43;;;;;;;4.53;3.93;;;15.00;99.90;;;;;;4987804;28;20511;-43
2022/10/28 00:13:10;;;;;;;4.90;3.97;;;15.00;99.90;;;;;;4989752;28;20519;-49
2022/10/28 00:15:37;;;;;;;5.73;4.10;;;15.00;99.90;;;;;;4999481;28;20477;-46
2022/10/28 00:18:06;;;;;;;5.77;4.13;;;15.30;99.90;;;;;;4999219;28;20602;-46
2022/10/28 00:20:34;;;;;;;4.77;4.37;;;14.90;99.90;;;;;;4998788;28;20431;-48
2022/10/28 00:23:00;;;;;;;5.60;5.00;;;14.90;99.90;;;;;;4998588;28;20490;-46
2022/10/28 00:25:28;;;;;;;5.33;4.20;;;;;;;;;;4999313;28;20516;-47
2022/10/28 00:28:00;;;;;;;4.50;4.07;;;15.10;99.90;;;;;;4998942;28;20465;-49
2022/10/28 00:30:26;;;;;;;6.30;4.23;;;15.10;99.90;;;;;;4998395;28;20451;-56
2022/10/28 00:32:53;;;;;;;5.00;4.50;;;15.10;99.90;;;;;;4990172;28;20451;-53
2022/10/28 00:35:20;;;;;;;7.40;4.60;;;15.20;99.90;;;;;;4999241;28;20506;-54
2022/10/28 00:37:48;;;;;;;5.20;4.40;;;15.20;99.90;;;;;;4999605;28;20539;-47
2022/10/28 00:40:15;;;;;;;4.10;3.70;;;15.20;99.90;;;;;;4999187;28;20470;-58
2022/10/28 00:42:42;;;;;;;5.00;4.50;;;15.20;99.90;;;;;;4996886;28;20543;-56
2022/10/28 00:45:09;;;;;;;5.87;3.77;;;15.20;99.90;;;;;;4993676;28;20423;-52
2022/10/28 00:47:54;;;;;;;7.13;5.00;;;15.20;99.90;;;;;;4999503;28;20447;-54
2022/10/28 00:50:40;;;;;;;29.73;5.70;;;15.20;99.90;;;;;;4999136;28;20446;-49
2022/10/28 00:53:15;;;;;;;8.60;4.47;;;15.20;99.90;;;;;;4998929;28;20458;-52
2022/10/28 00:55:43;;;;;;;5.50;4.90;;;15.20;99.90;;;;;;4997827;28;20470;-54
2022/10/28 00:58:11;;;;;;;4.80;4.17;;;15.30;99.90;;;;;;4998828;28;20407;-52
2022/10/28 01:00:38;;;;;;;6.10;5.53;;;15.30;99.90;;;;;;4998671;28;20439;-55
2022/10/28 01:03:05;;;;;;;8.27;5.10;;;15.30;99.90;;;;;;4998148;28;20501;-55
2022/10/28 01:05:35;;;;;;;7.53;5.30;;;15.60;99.90;;;;;;4998035;28;20446;-53
2022/10/28 01:08:05;;;;;;;13.90;5.40;;;15.30;99.90;;;;;;4987784;28;20432;-57
2022/10/28 01:10:51;;;;;;;7.43;5.50;;;15.30;99.90;;;;;;4997747;28;20435;-52
2022/10/28 01:13:30;;;;;;;7.70;4.40;;;15.10;99.90;;;;;;4998565;28;20427;-50
2022/10/28 01:16:07;;;;;;;5.33;4.00;;;15.20;99.90;;;;;;4996897;28;20546;-53
2022/10/28 01:18:43;;;;;;;8.37;5.53;;;15.40;99.90;;;;;;4998072;28;20430;-55
2022/10/28 01:21:49;;;;;;;4.30;3.90;;;15.20;99.90;;;;;;4997701;28;20443;-53
2022/10/28 01:24:29;;;;;;;6.97;4.23;;;15.50;99.90;;;;;;4983422;28;20455;-49
2022/10/28 01:27:22;;;;;;;5.70;4.47;;;15.00;99.90;;;;;;4997558;28;20490;-49
2022/10/28 01:30:02;;;;;;;5.57;4.27;;;15.20;99.90;;;;;;4997995;28;20470;-54
2022/10/28 01:32:38;;;;;;;10.07;4.97;;;15.10;99.90;;;;;;4998209;28;20430;-51
2022/10/28 01:35:14;;;;;;;7.47;4.00;;;15.10;99.90;;;;;;4997817;28;20471;-52
2022/10/28 01:37:48;;;;;;;4.47;3.90;;;15.10;99.90;;;;;;4997676;28;20510;-51
2022/10/28 01:40:26;;;;;;;6.73;4.20;;;15.00;99.90;;;;;;4997611;28;20434;-51
2022/10/28 01:42:56;;;;;;;5.00;4.50;;;14.90;99.90;;;;;;4997362;28;20427;-50
2022/10/28 01:45:28;;;;;;;8.10;4.20;;;14.90;99.90;;;;;;4997084;28;20431;-51
2022/10/28 01:48:00;;;;;;;4.90;4.50;;;15.20;99.90;;;;;;4997848;28;20514;-50
2022/10/28 01:50:32;;;;;;;5.03;4.20;;;15.00;99.90;;;;;;4997537;28;20441;-49
2022/10/28 01:53:04;;;;;;;5.40;4.60;;;14.40;99.90;;;;;;4997485;28;20427;-51
2022/10/28 01:55:36;;;;;;;7.87;4.67;;;14.90;99.90;;;;;;4997332;28;20491;-53
2022/10/28 01:58:05;;;;;;;9.10;4.73;;;15.10;99.90;;;;;;4997673;28;20430;-50
2022/10/28 02:00:34;;;;;;;5.80;3.83;;;15.30;99.90;;;;;;4997491;28;20455;-51
2022/10/28 02:03:03;;;;;;;6.97;5.00;;;14.80;99.90;;;;;;4997608;28;20453;-49
2022/10/28 02:05:39;;;;;;;4.70;4.17;;;15.20;99.90;;;;;;4996999;28;20427;-51
2022/10/28 02:08:25;;;;;;;5.07;3.60;;;14.60;99.90;;;;;;4996064;28;20503;-51
2022/10/28 02:11:07;;;;;;;6.37;4.30;;;15.00;99.90;;;;;;4996062;28;20435;-53
2022/10/28 02:13:44;;;;;;;6.33;3.90;;;15.10;99.90;;;;;;4996774;28;20609;-48
2022/10/28 02:16:19;;;;;;;8.20;4.30;;;15.10;99.90;;;;;;4996963;28;20498;-53
2022/10/28 02:18:56;;;;;;;4.67;3.77;;;15.10;99.90;;;;;;4996570;28;20430;-51
2022/10/28 02:21:33;;;;;;;4.83;4.33;;;14.90;99.90;;;;;;4997170;28;20445;-51
2022/10/28 02:24:08;;;;;;;8.03;4.90;;;14.90;99.90;;;;;;4996436;28;20442;-51
2022/10/28 02:26:39;;;;;;;4.93;3.93;;;15.00;99.90;;;;;;4995350;28;20525;-52
2022/10/28 02:29:13;;;;;;;4.13;3.73;;;14.80;99.90;;;;;;4997213;28;20442;-51
2022/10/28 02:31:46;;;;;;;6.60;3.70;;;14.80;99.90;;;;;;4996394;28;20431;-47
2022/10/28 02:34:16;;;;;;;6.40;4.63;;;;;;;;;;4996856;28;20431;-52
2022/10/28 02:36:48;;;;;;;6.40;4.67;;;14.90;99.90;;;;;;4996565;28;20974;-47
2022/10/28 02:39:18;;;;;;;7.57;5.17;;;14.60;99.90;;;;;;4996244;28;20473;-55
2022/10/28 02:41:54;;;;;;;6.40;4.70;;;15.20;99.90;;;;;;4996752;28;20459;-50
2022/10/28 02:44:26;;;;;;;4.93;4.20;;;14.80;99.90;;;;;;4996673;28;20430;-49
2022/10/28 02:46:57;;;;;;;7.07;4.90;;;14.80;99.90;;;;;;4996406;28;20428;-51
2022/10/28 02:49:27;;;;;;;12.00;4.97;;;14.80;99.90;;;;;;4995941;28;20435;-54
2022/10/28 02:51:57;;;;;;;5.10;4.23;;;14.90;99.90;;;;;;4995942;28;20474;-53
2022/10/28 02:54:28;;;;;;;5.83;4.87;;;14.90;99.90;;;;;;4996553;28;20467;-54
2022/10/28 02:57:02;;;;;;;6.10;5.50;;;14.80;99.90;;;;;;4996149;28;20462;-48
2022/10/28 02:59:32;;;;;;;7.97;4.70;;;14.80;99.90;;;;;;4995173;28;20459;-51
2022/10/28 03:01:59;;;;;;;7.67;5.10;;;14.70;99.90;;;;;;4996687;28;20503;-56
2022/10/28 03:04:27;;;;;;;11.53;5.03;;;14.70;99.90;;;;;;4996262;28;20483;-53
2022/10/28 03:06:54;;;;;;;10.93;5.20;;;14.70;99.90;;;;;;4996451;28;20506;-46
2022/10/28 03:09:20;;;;;;;6.13;4.17;;;14.70;99.90;;;;;;4987214;28;20451;-52
2022/10/28 03:11:47;;;;;;;6.50;5.07;;;14.80;99.90;;;;;;4996600;28;20515;-54
2022/10/28 03:14:14;;;;;;;9.20;5.30;;;14.80;99.90;;;;;;4991909;28;20990;-56
2022/10/28 03:16:41;;;;;;;6.67;4.20;;;14.80;99.90;;;;;;4991611;28;20546;-51
2022/10/28 03:19:08;;;;;;;6.47;4.90;;;14.80;99.90;;;;;;4989705;28;20431;-52
2022/10/28 03:21:36;;;;;;;7.57;4.17;;;14.70;99.90;;;;;;4996994;28;20514;-50
2022/10/28 03:24:02;;;;;;;5.87;4.90;;;14.70;99.90;;;;;;4996784;28;20491;-49
2022/10/28 03:26:29;;;;;;;8.77;4.80;;;14.70;99.90;;;;;;4997224;28;20445;-48
2022/10/28 03:28:56;;;;;;;7.10;4.30;;;14.60;99.90;;;;;;4994542;28;20474;-56
2022/10/28 03:31:23;;;;;;;15.87;5.70;;;14.60;99.90;;;;;;4990136;28;20461;-54
2022/10/28 03:33:50;;;;;;;5.07;4.40;;;14.60;99.90;;;;;;4996591;28;20511;-51
2022/10/28 03:36:17;;;;;;;6.60;4.93;;;14.60;99.90;;;;;;4995717;28;20487;-49
2022/10/28 03:38:45;;;;;;;7.33;4.30;;;14.60;99.90;;;;;;4998945;28;20427;-49
2022/10/28 03:41:12;;;;;;;7.50;4.80;;;14.60;99.90;;;;;;4999708;28;20511;-50
2022/10/28 03:43:39;;;;;;;6.07;5.10;;;14.60;99.90;;;;;;4991306;28;20477;-52
2022/10/28 03:46:06;;;;;;;9.67;5.10;;;14.50;99.90;;;;;;4999182;28;20490;-54
2022/10/28 03:48:32;;;;;;;9.20;5.50;;;14.60;99.90;;;;;;4992812;28;20465;-55
2022/10/28 03:50:59;;;;;;;6.87;5.30;;;14.60;99.90;;;;;;5000064;28;20431;-48
2022/10/28 03:53:26;;;;;;;8.80;5.00;;;14.60;99.90;;;;;;4999338;28;20514;-54
2022/10/28 03:55:55;;;;;;;10.03;4.80;;;14.70;99.90;;;;;;4999610;28;20530;-51
2022/10/28 03:58:22;;;;;;;4.80;4.03;;;14.60;99.90;;;;;;4999501;28;20562;-50
2022/10/28 04:00:50;;;;;;;5.50;4.70;;;14.60;99.90;;;;;;5062674;23;20505;-51
2022/10/28 04:03:18;;;;;;;6.10;4.90;;;14.60;99.90;;;;;;4998054;28;20474;-52
2022/10/28 04:05:47;;;;;;;9.60;4.70;;;15.20;99.90;;;;;;4997860;28;20470;-50
2022/10/28 04:08:21;;;;;;;5.40;4.63;;;14.60;99.90;;;;;;4997695;28;20435;-50
2022/10/28 04:10:48;;;;;;;4.43;4.03;;;14.60;99.90;;;;;;4996128;28;20415;-48
2022/10/28 04:13:17;;;;;;;5.60;5.00;;;14.60;99.90;;;;;;4997163;28;20462;-51
2022/10/28 04:15:44;;;;;;;6.90;5.20;;;14.60;99.90;;;;;;4997010;28;20515;-51
2022/10/28 04:18:11;;;;;;;8.30;4.60;;;14.60;99.90;;;;;;4997767;28;20480;-53
2022/10/28 04:20:38;;;;;;;8.30;5.20;;;14.60;99.90;;;;;;4998012;28;20507;-53
2022/10/28 04:23:07;;;;;;;6.73;5.00;;;14.60;99.90;;;;;;4998253;28;20507;-50
2022/10/28 04:25:34;;;;;;;6.10;5.03;;;14.60;99.90;;;;;;4997507;28;20492;-53
2022/10/28 04:28:01;;;;;;;6.40;4.67;;;14.60;99.90;;;;;;4997207;28;20499;-52
2022/10/28 04:30:29;;;;;;;5.73;4.80;;;14.60;99.90;;;;;;4998159;28;20475;-52
2022/10/28 04:32:56;;;;;;;7.07;4.43;;;14.60;99.90;;;;;;4990616;28;20458;-48
2022/10/28 04:35:23;;;;;;;7.57;5.47;;;14.60;99.90;;;;;;4992904;28;20474;-54
2022/10/28 04:37:50;;;;;;;6.87;5.13;;;14.50;99.90;;;;;;4993169;28;20490;-56
2022/10/28 04:40:17;;;;;;;7.40;5.60;;;14.50;99.90;;;;;;4998250;28;20474;-53
2022/10/28 04:42:44;;;;;;;6.87;4.40;;;14.50;99.90;;;;;;4997500;28;20438;-52
2022/10/28 04:45:11;;;;;;;7.17;5.40;;;14.50;99.90;;;;;;4998022;28;20446;-55
2022/10/28 04:47:41;;;;;;;9.63;4.70;;;14.50;99.90;;;;;;4997184;28;20478;-53
2022/10/28 04:50:09;;;;;;;11.13;5.13;;;14.50;99.90;;;;;;4995500;28;20482;-49
2022/10/28 04:52:36;;;;;;;8.67;5.07;;;14.50;99.90;;;;;;4996966;28;20473;-55
2022/10/28 04:55:03;;;;;;;6.60;5.37;;;14.50;99.90;;;;;;4997163;28;20467;-48
2022/10/28 04:57:31;;;;;;;6.93;4.67;;;14.50;99.90;;;;;;4994437;28;20493;-55
2022/10/28 04:59:58;;;;;;;10.80;5.87;;;14.50;99.90;;;;;;4992329;28;21044;-51
2022/10/28 05:02:27;;;;;;;5.60;4.73;;;14.50;99.90;;;;;;4997005;28;20473;-51
2022/10/28 05:04:59;;;;;;;6.90;4.90;;;14.50;99.90;;;;;;4996876;28;20446;-48
2022/10/28 05:07:26;;;;;;;5.40;4.70;;;14.40;99.90;;;;;;4990230;28;20478;-54
2022/10/28 05:09:53;;;;;;;11.53;4.87;;;14.40;99.90;;;;;;4996901;28;20485;-49
2022/10/28 05:12:19;;;;;;;6.20;4.13;;;14.40;99.90;;;;;;4997126;28;20485;-50
2022/10/28 05:14:46;;;;;;;8.40;5.50;;;14.40;99.90;;;;;;4996961;28;20515;-56
2022/10/28 05:17:13;;;;;;;7.83;4.20;;;14.40;99.90;;;;;;4995989;28;20538;-48
2022/10/28 05:19:41;;;;;;;5.13;4.63;;;14.40;99.90;;;;;;4996708;28;20426;-48
2022/10/28 05:22:09;;;;;;;13.07;6.27;;;14.40;99.90;;;;;;4997038;28;20447;-45
2022/10/28 05:24:35;;;;;;;6.60;4.13;;;14.40;99.90;;;;;;4996576;28;20463;-51
2022/10/28 05:27:03;;;;;;;10.03;5.23;;;14.40;99.90;;;;;;4985199;28;20450;-53
2022/10/28 05:29:29;;;;;;;8.87;5.23;;;14.40;99.90;;;;;;4990045;28;20440;-50
2022/10/28 05:31:56;;;;;;;9.27;4.97;;;14.40;99.90;;;;;;4997008;28;20518;-48
2022/10/28 05:34:23;;;;;;;6.43;5.50;;;14.40;99.90;;;;;;4997093;28;20451;-54
2022/10/28 05:36:50;;;;;;;7.00;6.10;;;15.70;99.90;;;;;;4996583;28;20726;-55
2022/10/28 05:39:18;;;;;;;6.90;5.60;;;14.30;99.90;;;;;;4992864;28;20431;-54
2022/10/28 05:41:45;;;;;;;5.50;5.00;;;14.30;99.90;;;;;;4992837;28;20453;-55
2022/10/28 05:44:12;;;;;;;13.53;5.73;;;14.40;99.90;;;;;;4996996;28;20439;-55
2022/10/28 05:46:38;;;;;;;6.20;4.80;;;14.30;99.90;;;;;;4995845;28;20453;-49
2022/10/28 05:49:05;;;;;;;8.13;5.33;;;14.40;99.90;;;;;;4995713;28;20498;-51
2022/10/28 05:51:48;;;;;;;4.63;4.17;;;14.40;99.90;;;;;;4996228;28;20439;-54
2022/10/28 05:54:15;;;;;;;8.97;4.80;;;14.40;99.90;;;;;;4976606;28;20435;-54
2022/10/28 05:56:43;;;;;;;10.50;5.60;;;14.40;99.90;;;;;;4993402;28;20531;-54
2022/10/28 05:59:09;;;;;;;6.97;5.03;;;14.40;99.90;;;;;;4992996;28;20456;-52
2022/10/28 06:01:36;;;;;;;7.70;5.70;;;14.40;99.90;;;;;;4987907;28;20456;-50
2022/10/28 06:04:03;;;;;;;4.53;3.90;;;14.50;99.90;;;;;;4994580;28;20438;-45
2022/10/28 06:06:30;;;;;;;7.77;4.50;;;14.50;99.90;;;;;;4990078;28;20445;-49
2022/10/28 06:08:57;;;;;;;6.00;4.93;;;14.50;99.90;;;;;;4995371;28;20463;-56
2022/10/28 06:11:27;;;;;;;7.60;3.93;;;14.50;99.90;;;;;;4991808;28;20436;-50
2022/10/28 06:13:55;;;;;;;8.57;5.70;;;14.50;99.90;;;;;;4992295;28;20471;-49
2022/10/28 06:16:22;;;;;;;4.90;4.27;;;14.60;99.90;;;;;;4989175;28;20454;-54
2022/10/28 06:18:49;;;;;;;8.50;4.90;;;14.60;99.90;;;;;;4990759;28;20466;-50
2022/10/28 06:21:15;;;;;;;6.93;5.63;;;14.70;99.90;;;;;;4995794;28;20478;-53
2022/10/28 06:23:42;;;;;;;6.33;4.33;;;14.70;99.90;;;;;;4996004;28;20453;-60
2022/10/28 06:26:09;;;;;;;6.43;4.67;;;14.70;99.90;;;;;;4994198;28;20447;-47
2022/10/28 06:28:37;;;;;;;7.20;5.07;;;14.70;99.90;;;;;;4968722;28;20446;-54
2022/10/28 06:31:07;;;;;;;4.83;4.33;;;14.70;99.90;;;;;;4967892;28;20452;-55
2022/10/28 06:33:34;;;;;;;7.17;5.40;;;14.70;99.90;;;;;;4976091;29;20476;-53
2022/10/28 06:36:01;;;;;;;6.17;5.60;;;14.70;99.90;;;;;;4967973;29;20440;-60
2022/10/28 06:38:29;;;;;;;10.43;4.87;;;14.70;99.90;;;;;;4976258;29;20483;-55
2022/10/28 06:40:58;;;;;;;6.73;4.47;;;14.70;99.90;;;;;;4976472;29;20474;-51
2022/10/28 06:43:24;;;;;;;10.90;4.70;;;14.70;99.90;;;;;;4977206;29;20444;-45
2022/10/28 06:45:55;;;;;;;7.27;4.83;;;14.80;99.90;;;;;;4967548;29;20472;-53
2022/10/28 06:48:25;;;;;;;8.80;5.10;;;14.70;99.90;;;;;;4976270;29;20409;-53
2022/10/28 06:50:55;;;;;;;6.37;5.07;;;14.70;99.90;;;;;;4975669;29;20443;-53
2022/10/28 06:53:21;;;;;;;7.90;4.57;;;14.70;99.90;;;;;;4979267;28;20459;-56
2022/10/28 06:55:52;;;;;;;5.93;4.77;;;14.80;99.90;;;;;;4996122;28;20438;-46
2022/10/28 06:58:19;;;;;;;5.43;3.73;;;14.80;99.90;;;;;;4990410;28;20473;-55
2022/10/28 07:00:46;;;;;;;9.50;5.00;;;14.90;99.90;;;;;;4995016;28;20423;-52
2022/10/28 07:03:13;;;;;;;7.10;4.23;;;14.90;99.90;;;;;;4995841;28;20455;-57
2022/10/28 07:05:41;;;;;;;6.90;4.23;;;14.90;99.90;;;;;;4995525;28;20442;-51
2022/10/28 07:08:08;;;;;;;5.50;3.97;;;14.90;99.90;;;;;;4984828;28;20443;-49
2022/10/28 07:10:35;;;;;;;5.40;4.73;;;14.90;99.90;;;;;;4993833;28;20488;-51
2022/10/28 07:13:01;;;;;;;7.60;4.73;;;15.00;99.90;;;;;;4985983;28;20468;-52
2022/10/28 07:15:28;;;;;;;5.23;4.70;;;15.00;99.90;;;;;;4983266;28;20447;-49
2022/10/28 07:17:56;;;;;;;6.67;5.20;;;15.00;99.90;;;;;;4996468;28;20478;-48
2022/10/28 07:20:25;;;;;;;6.63;4.37;;;15.10;99.90;;;;;;4997393;28;20498;-49
2022/10/28 07:22:57;;;;;;;8.27;4.70;;;15.10;99.90;;;;;;4990227;28;20439;-51
2022/10/28 07:25:24;;;;;;;5.80;4.70;;;15.10;99.90;;;;;;4997453;28;20471;-55
2022/10/28 07:27:50;;;;;;;6.00;4.30;;;15.20;99.90;;;;;;4995684;28;20449;-57
2022/10/28 07:30:17;;;;;;;4.93;4.10;;;15.30;99.90;;;;;;4992219;28;20447;-55
2022/10/28 07:32:46;;;;;;;5.50;4.40;;;15.30;99.90;;;;;;4998677;28;20421;-52
2022/10/28 07:35:12;;;;;;;13.60;5.10;;;15.40;99.90;;;;;;4997639;28;20455;-51
2022/10/28 07:37:39;;;;;;;4.63;3.57;;;15.40;99.90;;;;;;4998112;28;20494;-53
2022/10/28 07:40:09;;;;;;;5.93;4.30;;;15.40;99.90;;;;;;4997902;28;20451;-54
2022/10/28 07:42:35;;;;;;;4.87;4.30;;;15.50;99.90;;;;;;4999018;28;20483;-54
2022/10/28 07:45:02;;;;;;;5.43;4.07;;;15.60;99.90;;;;;;4998563;28;20494;-47
2022/10/28 07:47:29;;;;;;;4.90;4.10;;;15.70;99.90;;;;;;4998247;28;20439;-54
2022/10/28 07:49:56;;;;;;;14.20;4.47;;;15.80;99.90;;;;;;4998223;28;20542;-54
2022/10/28 07:52:23;;;;;;;4.20;3.60;;;15.80;99.90;;;;;;4999324;28;20487;-51
2022/10/28 07:54:52;;;;;;;6.80;4.63;;;15.90;99.90;;;;;;4998442;28;20450;-52
2022/10/28 07:57:20;;;;;;;5.63;4.33;;;16.00;99.90;;;;;;4998219;28;20457;-52
2022/10/28 07:59:47;;;;;;;5.30;3.90;;;16.10;99.90;;;;;;4998971;28;20467;-50
2022/10/28 08:02:17;;;;;;;7.63;4.17;;;16.20;99.90;;;;;;4989887;28;20525;-51
2022/10/28 08:04:44;;;;;;;9.50;3.63;;;16.30;99.90;;;;;;4998620;28;20443;-52
2022/10/28 08:07:11;;;;;;;9.53;4.10;;;16.30;99.90;;;;;;4992139;28;20772;-55
2022/10/28 08:09:38;;;;;;;7.50;3.50;;;16.30;99.90;;;;;;4995618;28;20443;-51
2022/10/28 08:12:06;;;;;;;4.57;4.17;;;16.40;99.90;;;;;;4998201;28;20447;-56
2022/10/28 08:14:34;;;;;;;9.57;4.40;;;16.60;99.90;;;;;;4996970;28;20518;-50
2022/10/28 08:17:02;;;;;;;9.37;4.33;;;16.80;99.90;;;;;;4992945;28;20461;-53
2022/10/28 08:19:28;;;;;;;5.50;4.10;;;16.90;99.90;;;;;;4987959;28;20474;-46
2022/10/28 08:21:55;;;;;;;7.13;3.63;;;17.10;99.90;;;;;;4997572;28;20441;-50
2022/10/28 08:24:22;;;;;;;4.70;4.27;;;17.20;99.90;;;;;;4989454;28;20457;-52
2022/10/28 08:26:49;;;;;;;5.60;3.30;;;17.20;99.90;;;;;;4997223;28;20502;-50
2022/10/28 08:29:16;;;;;;;8.63;3.73;;;17.30;99.90;;;;;;4997668;28;20430;-51
2022/10/28 08:31:44;;;;;;;5.03;3.60;;;17.30;99.90;;;;;;4997795;28;20453;-47
2022/10/28 08:34:11;;;;;;;5.23;4.00;;;17.40;99.90;;;;;;4991044;28;20542;-55
2022/10/28 08:36:38;;;;;;;10.07;3.60;;;17.50;99.90;;;;;;4998212;28;20477;-58
2022/10/28 08:39:04;;;;;;;9.57;4.30;;;17.70;99.90;;;;;;4998145;28;20493;-57
2022/10/28 08:41:39;;;;;;;5.50;3.60;;;17.80;99.90;;;;;;4998139;28;20454;-49
2022/10/28 08:44:34;;;;;;;4.07;3.20;;;17.90;99.90;;;;;;4998446;28;20426;-52
2022/10/28 08:47:14;;;;;;;4.23;3.83;;;18.00;99.90;;;;;;4997923;28;20470;-53
2022/10/28 08:49:42;;;;;;;5.40;3.17;;;18.10;99.90;;;;;;4997734;28;20431;-56
2022/10/28 08:52:19;;;;;;;8.40;3.80;;;18.00;99.90;;;;;;4998331;28;20443;-53
2022/10/28 08:54:52;;;;;;;9.70;7.10;;;18.00;99.90;;;;;;4998430;28;20452;-48
2022/10/28 08:57:21;;;;;;;20.17;11.30;;;18.00;99.90;;;;;;4995938;28;20415;-55
2022/10/28 08:59:51;;;;;;;25.43;10.23;;;18.10;99.90;;;;;;4994196;28;20487;-53
2022/10/28 09:02:23;;;;;;;15.47;8.90;;;18.20;99.90;;;;;;4997685;28;20445;-49
2022/10/28 09:04:56;;;;;;;7.23;4.03;;;18.30;99.90;;;;;;4997348;28;20486;-46
2022/10/28 09:07:24;;;;;;;4.67;3.63;;;18.40;99.90;;;;;;4997524;28;20412;-50
2022/10/28 09:09:53;;;;;;;4.67;3.70;;;18.50;99.90;;;;;;4987649;28;20478;-51
2022/10/28 09:12:30;;;;;;;8.43;3.87;;;18.70;99.90;;;;;;4997289;28;20471;-55
2022/10/28 09:15:13;;;;;;;6.23;3.93;;;18.90;99.90;;;;;;4997425;28;20486;-50
2022/10/28 09:17:51;;;;;;;6.63;4.70;;;19.00;99.90;;;;;;4997617;28;20414;-48
2022/10/28 09:20:21;;;;;;;5.80;4.43;;;19.00;99.90;;;;;;4997168;28;20454;-52
2022/10/28 09:22:56;;;;;;;7.03;3.93;;;19.00;99.90;;;;;;4997229;28;20431;-50
2022/10/28 09:25:31;;;;;;;6.40;2.90;;;19.30;99.90;;;;;;4997523;28;20454;-60
2022/10/28 09:28:09;;;;;;;3.53;3.23;;;19.90;99.90;;;;;;4997079;28;20489;-57
2022/10/28 09:30:48;;;;;;;4.90;3.20;;;21.10;99.90;;;;;;4992582;28;20438;-53
2022/10/28 09:33:44;;;;;;;4.60;3.20;;;22.40;99.90;;;;;;4972862;28;20416;-52
2022/10/28 09:36:17;;;;;;;5.80;4.07;;;23.70;99.90;;;;;;4966401;28;20452;-50
2022/10/28 09:38:44;;;;;;;8.87;3.43;;;24.80;99.90;;;;;;4975065;29;20464;-51
2022/10/28 09:41:17;;;;;;;9.90;3.37;;;25.60;99.90;;;;;;4988168;28;20459;-51
2022/10/28 09:43:51;;;;;;;4.70;3.80;;;26.30;99.90;;;;;;4996124;28;20512;-52
2022/10/28 09:46:19;;;;;;;3.50;3.00;;;27.00;99.90;;;;;;4981226;28;20437;-53
2022/10/28 09:48:49;;;;;;;4.83;4.30;;;27.40;99.90;;;;;;4995795;28;20435;-53
2022/10/28 09:51:27;;;;;;;6.30;4.00;;;27.90;99.90;;;;;;4995982;28;20450;-50
2022/10/28 09:53:57;;;;;;;6.43;3.37;;;28.20;99.90;;;;;;4996599;28;20427;-55
2022/10/28 09:56:24;;;;;;;5.60;3.43;;;28.30;98.20;;;;;;4995877;28;20467;-53
2022/10/28 09:58:59;;;;;;;5.07;3.60;;;28.40;97.60;;;;;;4992763;28;20483;-52
2022/10/28 10:01:31;;;;;;;6.27;3.33;;;28.80;96.50;;;;;;4987180;28;20511;-52
2022/10/28 10:04:00;;;;;;;4.17;2.80;;;29.00;94.90;;;;;;4995319;28;20541;-55
2022/10/28 10:06:32;;;;;;;3.10;2.87;;;29.20;93.60;;;;;;4995792;28;20458;-54
2022/10/28 10:09:00;;;;;;;5.40;2.87;;;29.50;92.60;;;;;;4995700;28;20462;-54
2022/10/28 10:11:32;;;;;;;4.67;2.77;;;29.50;92.10;;;;;;4996272;28;20466;-49
2022/10/28 10:14:07;;;;;;;9.17;3.10;;;29.50;91.00;;;;;;4994615;28;20474;-51
2022/10/28 10:16:39;;;;;;;5.13;2.67;;;28.80;91.30;;;;;;4995614;28;20435;-54
2022/10/28 10:19:09;;;;;;;4.47;2.90;;;28.00;93.10;;;;;;4994890;28;20467;-53
2022/10/28 10:21:44;;;;;;;4.00;2.80;;;27.80;94.00;;;;;;4995079;28;20465;-53
2022/10/28 10:24:32;;;;;;;4.20;2.87;;;27.70;94.80;;;;;;4995818;28;20437;-53
2022/10/28 10:27:03;;;;;;;4.87;3.10;;;28.10;94.10;;;;;;4991027;28;20450;-54
2022/10/28 10:29:32;;;;;;;6.70;2.87;;;28.30;93.50;;;;;;4995390;28;20419;-51
2022/10/28 10:32:08;;;;;;;5.70;3.60;;;28.30;93.30;;;;;;4995602;28;20494;-50
2022/10/28 10:34:36;;;;;;;5.20;3.53;;;28.20;93.50;;;;;;4995678;28;20464;-52
2022/10/28 10:37:04;;;;;;;4.87;3.30;;;28.10;93.70;;;;;;4995637;28;20439;-50
2022/10/28 10:39:35;;;;;;;3.40;3.00;;;28.00;94.10;;;;;;4995140;28;20490;-53
2022/10/28 10:42:03;;;;;;;4.70;4.17;;;28.00;94.00;;;;;;4995319;28;20454;-50
2022/10/28 10:44:35;;;;;;;6.90;3.10;;;28.10;94.00;;;;;;4995715;28;20446;-50
2022/10/28 10:47:21;;;;;;;9.73;3.43;;;28.10;94.50;;;;;;4990348;28;20457;-56
2022/10/28 10:49:50;;;;;;;4.40;2.80;;;27.90;93.70;;;;;;4993774;28;20442;-48
2022/10/28 10:52:21;;;;;;;7.70;3.07;;;27.50;94.70;;;;;;4979469;28;20474;-55
2022/10/28 10:55:02;;;;;;;4.47;2.60;;;27.30;95.50;;;;;;4990788;28;20450;-56
2022/10/28 10:57:32;;;;;;;4.30;2.90;;;27.20;95.80;;;;;;4989924;28;20419;-51
2022/10/28 11:00:01;;;;;;;4.33;2.43;;;26.90;96.90;;;;;;4994031;28;20455;-53
2022/10/28 11:02:33;;;;;;;10.47;3.00;;;26.50;97.20;;;;;;4995323;28;20449;-50
2022/10/28 11:05:05;;;;;;;4.60;3.40;;;25.90;99.10;;;;;;4986654;28;20486;-53
2022/10/28 11:07:32;;;;;;;5.80;2.87;;;25.60;99.90;;;;;;4994546;28;20474;-53
2022/10/28 11:10:01;;;;;;;5.70;2.70;;;25.10;99.90;;;;;;4995479;28;20534;-49
2022/10/28 11:12:30;;;;;;;3.40;2.20;;;24.90;99.90;;;;;;4994756;28;20462;-52
2022/10/28 11:14:59;;;;;;;5.43;3.13;;;24.60;99.90;;;;;;4981976;28;20466;-52
2022/10/28 11:17:27;;;;;;;6.80;3.20;;;24.30;99.90;;;;;;4994408;28;20466;-52
2022/10/28 11:19:57;;;;;;;5.50;2.87;;;24.10;99.90;;;;;;4993718;28;20973;-56
2022/10/28 11:22:47;;;;;;;4.50;3.33;;;24.00;99.90;;;;;;4995287;28;20447;-54
2022/10/28 11:25:35;;;;;;;4.40;2.37;;;23.90;99.90;;;;;;4995710;28;20869;-50
2022/10/28 11:28:32;;;;;;;3.67;2.40;;;23.80;99.90;;;;;;4995088;28;20431;-51
2022/10/28 11:31:22;;;;;;;4.57;3.20;;;23.70;99.90;;;;;;4994792;28;20419;-48
2022/10/28 11:34:04;;;;;;;4.27;2.90;;;23.60;99.90;;;;;;4981572;28;20511;-52
2022/10/28 11:36:42;;;;;;;8.03;3.00;;;23.40;99.90;;;;;;4994771;28;20469;-50
2022/10/28 11:39:32;;;;;;;4.10;2.60;;;23.30;99.90;;;;;;4986668;28;20465;-54
2022/10/28 11:42:14;;;;;;;4.00;2.70;;;23.30;99.90;;;;;;4995140;28;20459;-54
2022/10/28 11:44:53;;;;;;;5.97;2.77;;;23.30;99.90;;;;;;4994899;28;20443;-54
2022/10/28 11:47:36;;;;;;;6.67;3.10;;;23.40;99.90;;;;;;4987246;28;20443;-53
2022/10/28 11:50:36;;;;;;;3.90;3.07;;;23.40;99.90;;;;;;4995034;28;20512;-58
2022/10/28 11:53:27;;;;;;;7.67;3.03;;;23.30;99.90;;;;;;4995150;28;20443;-59
2022/10/28 11:56:06;;;;;;;6.13;2.90;;;23.40;99.90;;;;;;4994847;28;20419;-53
2022/10/28 11:58:44;;;;;;;3.13;2.50;;;23.50;99.90;;;;;;4995335;28;20449;-51
2022/10/28 12:01:23;;;;;;;5.03;3.13;;;23.50;99.90;;;;;;4997652;28;20478;-50
2022/10/28 12:04:07;;;;;;;9.13;2.60;;;23.50;99.90;;;;;;4999962;28;20499;-51
2022/10/28 12:06:53;;;;;;;3.70;2.90;;;23.50;99.90;;;;;;5000011;28;20591;-51
2022/10/28 12:09:28;;;;;;;9.40;3.07;;;23.50;99.90;;;;;;4999251;28;20454;-52
2022/10/28 12:12:16;;;;;;;10.97;3.10;;;23.30;99.90;;;;;;4999743;28;20492;-48
2022/10/28 12:14:51;;;;;;;3.97;2.73;;;23.30;99.90;;;;;;4999582;28;20474;-52
2022/10/28 12:17:26;;;;;;;4.03;2.60;;;23.30;99.90;;;;;;4999313;28;20485;-54
2022/10/28 12:20:01;;;;;;;6.50;2.67;;;23.30;99.90;;;;;;4998814;28;20521;-48
2022/10/28 12:22:33;;;;;;;6.90;2.70;;;23.50;99.90;;;;;;4999439;28;20434;-53
2022/10/28 12:25:13;;;;;;;6.90;2.93;;;23.60;99.90;;;;;;4991579;28;20494;-43
2022/10/28 12:27:49;;;;;;;7.53;2.63;;;23.80;99.90;;;;;;4999328;28;20433;-42
2022/10/28 12:30:21;;;;;;;6.80;2.50;;;23.90;99.90;;;;;;4999013;28;20423;-43
2022/10/28 12:32:51;;;;;;;5.17;2.70;;;24.10;99.90;;;;;;4999311;28;20455;-46
2022/10/28 12:35:24;;;;;;;9.07;3.07;;;24.10;99.90;;;;;;4998996;28;20518;-44
2022/10/28 12:37:56;;;;;;;7.07;2.70;;;24.10;99.90;;;;;;4999417;28;20466;-42
2022/10/28 12:40:27;;;;;;;3.83;2.33;;;24.10;99.90;;;;;;4999599;28;20467;-46
2022/10/28 12:42:59;;;;;;;5.47;3.50;;;24.10;99.90;;;;;;4998970;28;20440;-48
2022/10/28 12:45:27;;;;;;;8.63;3.70;;;24.20;99.90;;;;;;4999140;28;20438;-46
2022/10/28 12:47:59;;;;;;;4.50;3.40;;;24.20;99.90;;;;;;4998857;28;20445;-43
2022/10/28 12:50:32;;;;;;;4.77;3.43;;;24.10;99.90;;;;;;4998426;28;20457;-46
2022/10/28 12:53:21;;;;;;;4.70;3.40;;;24.10;99.90;;;;;;4998590;28;20435;-44
2022/10/28 12:55:53;;;;;;;5.03;3.40;;;24.00;99.90;;;;;;4998868;28;20428;-47
2022/10/28 12:58:27;;;;;;;3.87;2.70;;;24.00;99.90;;;;;;4998368;28;20431;-43
2022/10/28 13:00:57;;;;;;;7.73;3.80;;;24.00;99.90;;;;;;4998380;28;20471;-47
2022/10/28 13:03:23;;;;;;;7.27;3.43;;;24.00;99.90;;;;;;4998678;28;20538;-47
2022/10/28 13:05:58;;;;;;;3.13;2.60;;;24.00;99.90;;;;;;4997062;28;20457;-43